createdAt,value
2022-08-07T00:00:40.104Z,1.50
2022-08-07T00:03:09.513Z,1.60
2022-08-07T00:05:37.941Z,1.80
2022-08-07T00:08:07.822Z,1.50
2022-08-07T00:10:48.307Z,1.55
2022-08-07T00:13:26.737Z,1.73
2022-08-07T00:15:55.596Z,1.63
2022-08-07T00:18:27.743Z,1.92
2022-08-07T00:21:01.911Z,1.60
2022-08-07T00:23:32.787Z,1.45
2022-08-07T00:26:13.064Z,1.50
2022-08-07T00:28:56.673Z,1.65
2022-08-07T00:31:38.463Z,1.60
2022-08-07T00:34:10.043Z,1.87
2022-08-07T00:36:43.291Z,1.60
2022-08-07T00:39:12.882Z,1.42
2022-08-07T00:42:02.236Z,1.50
2022-08-07T00:44:34.756Z,1.65
2022-08-07T00:47:06.561Z,1.73
2022-08-07T00:50:19.571Z,1.60
2022-08-07T00:52:33.248Z,1.65
2022-08-07T00:55:10.422Z,1.65
2022-08-07T00:57:44.514Z,1.45
2022-08-07T01:00:23.945Z,1.62
2022-08-07T01:02:52.296Z,1.50
2022-08-07T01:05:24.524Z,1.70
2022-08-07T01:07:53.188Z,1.87
2022-08-07T01:10:23.176Z,1.73
2022-08-07T01:12:54.683Z,1.62
2022-08-07T01:15:36.052Z,1.45
2022-08-07T01:18:17.108Z,1.85
2022-08-07T01:20:59.203Z,1.52
2022-08-07T01:23:36.402Z,1.80
2022-08-07T01:26:11.828Z,1.70
2022-08-07T01:28:49.126Z,1.90
2022-08-07T01:31:19.355Z,1.58
2022-08-07T01:33:55.076Z,1.70
2022-08-07T01:36:33.654Z,1.70
2022-08-07T01:39:04.096Z,1.90
2022-08-07T01:41:40.926Z,1.83
2022-08-07T01:44:28.928Z,1.70
2022-08-07T01:46:58.541Z,1.80
2022-08-07T01:49:29.481Z,1.70
2022-08-07T01:52:04.926Z,1.62
2022-08-07T01:54:37.603Z,1.50
2022-08-07T01:57:20.693Z,1.90
2022-08-07T02:00:13.185Z,1.80
2022-08-07T02:03:18.803Z,2.15
2022-08-07T02:05:59.864Z,2.00
2022-08-07T02:08:33.910Z,1.73
2022-08-07T02:11:04.785Z,1.73
2022-08-07T02:13:56.813Z,2.17
2022-08-07T02:16:28.656Z,2.08
2022-08-07T02:20:07.445Z,1.60
2022-08-07T02:21:58.579Z,1.90
2022-08-07T02:27:02.624Z,2.15
2022-08-07T02:29:34.458Z,1.85
2022-08-07T02:32:14.915Z,1.95
2022-08-07T02:34:48.998Z,1.90
2022-08-07T02:37:20.933Z,1.80
2022-08-07T02:40:02.291Z,1.77
2022-08-07T02:42:39.695Z,1.75
2022-08-07T02:45:59.272Z,2.00
2022-08-07T02:48:01.621Z,1.85
2022-08-07T02:50:35.096Z,2.00
2022-08-07T02:53:10.829Z,1.80
2022-08-07T02:56:03.327Z,1.80
2022-08-07T02:58:35.240Z,1.80
2022-08-07T03:01:06.074Z,1.67
2022-08-07T03:03:49.754Z,2.00
2022-08-07T03:06:26.232Z,1.58
2022-08-07T03:09:02.865Z,1.60
2022-08-07T03:11:38.633Z,1.77
2022-08-07T03:14:08.017Z,1.60
2022-08-07T03:16:36.419Z,1.60
2022-08-07T03:19:08.439Z,1.50
2022-08-07T03:21:37.383Z,1.62
2022-08-07T03:24:20.527Z,1.37
2022-08-07T03:26:58.739Z,1.60
2022-08-07T03:29:49.293Z,1.60
2022-08-07T03:32:33.586Z,1.50
2022-08-07T03:35:18.160Z,1.65
2022-08-07T03:40:30.999Z,1.17
2022-08-07T03:43:10.051Z,1.73
2022-08-07T03:45:43.357Z,1.50
2022-08-07T03:48:16.100Z,1.67
2022-08-07T03:50:55.968Z,1.55
2022-08-07T03:53:50.016Z,1.35
2022-08-07T03:56:32.804Z,1.30
2022-08-07T03:59:09.813Z,1.10
2022-08-07T04:01:45.360Z,1.30
2022-08-07T04:04:17.941Z,1.77
2022-08-07T04:06:50.922Z,1.40
2022-08-07T04:09:23.252Z,1.15
2022-08-07T04:12:25.028Z,1.10
2022-08-07T04:14:43.676Z,1.40
2022-08-07T04:17:20.440Z,0.98
2022-08-07T04:19:51.984Z,1.00
2022-08-07T04:22:28.932Z,0.90
2022-08-07T04:25:01.377Z,1.02
2022-08-07T04:27:35.589Z,0.80
2022-08-07T04:30:21.047Z,1.27
2022-08-07T04:32:58.048Z,1.87
2022-08-07T04:35:27.735Z,0.95
2022-08-07T04:38:11.577Z,1.25
2022-08-07T04:40:52.616Z,1.10
2022-08-07T04:44:12.056Z,0.90
2022-08-07T04:46:59.318Z,1.33
2022-08-07T04:49:39.429Z,0.93
2022-08-07T04:52:46.663Z,0.88
2022-08-07T04:58:10.148Z,1.02
2022-08-07T04:59:17.182Z,0.90
2022-08-07T05:01:51.998Z,0.90
2022-08-07T05:04:47.084Z,1.20
2022-08-07T05:07:27.577Z,0.85
2022-08-07T05:10:11.012Z,1.12
2022-08-07T05:12:46.330Z,1.10
2022-08-07T05:15:31.214Z,1.00
2022-08-07T05:18:32.161Z,0.93
2022-08-07T05:23:44.143Z,1.02
2022-08-07T05:26:23.987Z,0.90
2022-08-07T05:28:55.619Z,0.90
2022-08-07T05:31:38.470Z,1.25
2022-08-07T05:34:10.999Z,1.00
2022-08-07T05:36:43.540Z,1.02
2022-08-07T05:40:12.763Z,0.90
2022-08-07T05:42:05.319Z,0.98
2022-08-07T05:44:37.858Z,0.90
2022-08-07T05:47:20.026Z,1.05
2022-08-07T05:49:50.678Z,1.45
2022-08-07T05:52:20.057Z,1.03
2022-08-07T05:54:55.696Z,1.85
2022-08-07T05:57:26.667Z,0.90
2022-08-07T06:00:01.281Z,1.12
2022-08-07T06:02:41.053Z,1.08
2022-08-07T06:05:15.678Z,1.10
2022-08-07T06:08:14.073Z,1.42
2022-08-07T06:10:33.774Z,0.98
2022-08-07T06:13:03.507Z,1.85
2022-08-07T06:15:39.329Z,2.33
2022-08-07T06:18:14.803Z,0.93
2022-08-07T06:20:50.436Z,1.37
2022-08-07T06:24:36.776Z,0.95
2022-08-07T06:26:27.477Z,0.98
2022-08-07T06:28:59.619Z,1.45
2022-08-07T06:31:38.829Z,1.15
2022-08-07T06:34:19.563Z,1.40
2022-08-07T06:36:48.247Z,1.27
2022-08-07T06:40:17.538Z,1.20
2022-08-07T06:42:35.129Z,0.77
2022-08-07T06:45:18.277Z,0.80
2022-08-07T06:47:48.051Z,1.20
2022-08-07T06:53:00.984Z,0.95
2022-08-07T06:55:53.513Z,0.80
2022-08-07T06:58:26.116Z,1.05
2022-08-07T07:00:58.116Z,1.00
2022-08-07T07:03:48.787Z,1.00
2022-08-07T07:06:14.614Z,0.70
2022-08-07T07:08:51.844Z,0.88
2022-08-07T07:12:09.168Z,1.10
2022-08-07T07:14:08.608Z,0.90
2022-08-07T07:16:49.418Z,1.02
2022-08-07T07:19:57.837Z,0.80
2022-08-07T07:22:36.533Z,1.20
2022-08-07T07:26:30.460Z,1.50
2022-08-07T07:28:42.337Z,1.45
2022-08-07T07:31:04.020Z,1.62
2022-08-07T07:33:36.014Z,1.50
2022-08-07T07:36:12.775Z,1.00
2022-08-07T07:38:45.924Z,0.82
2022-08-07T07:41:16.881Z,0.90
2022-08-07T07:44:14.683Z,0.93
2022-08-07T07:46:54.694Z,0.90
2022-08-07T07:50:33.699Z,0.80
2022-08-07T07:52:16.770Z,0.70
2022-08-07T07:54:50.650Z,1.45
2022-08-07T07:57:50.554Z,0.93
2022-08-07T08:00:21.072Z,0.98
2022-08-07T08:03:17.013Z,0.82
2022-08-07T08:05:58.714Z,0.80
2022-08-07T08:08:35.555Z,0.65
2022-08-07T08:11:08.148Z,1.00
2022-08-07T08:13:52.978Z,1.05
2022-08-07T08:16:25.168Z,1.00
2022-08-07T08:18:56.676Z,0.90
2022-08-07T08:22:00.595Z,1.20
2022-08-07T08:25:25.103Z,0.90
2022-08-07T08:27:57.515Z,0.85
2022-08-07T08:30:37.536Z,1.00
2022-08-07T08:33:16.878Z,1.00
2022-08-07T08:35:49.866Z,0.90
2022-08-07T08:38:29.421Z,0.90
2022-08-07T08:43:56.108Z,1.10
2022-08-07T08:46:39.005Z,1.10
2022-08-07T08:49:32.841Z,1.00
2022-08-07T08:52:24.528Z,1.00
2022-08-07T08:55:07.674Z,1.20
2022-08-07T08:57:46.810Z,1.00
2022-08-07T09:00:16.875Z,0.90
2022-08-07T09:02:55.122Z,1.05
2022-08-07T09:05:52.164Z,0.93
2022-08-07T09:09:13.493Z,0.80
2022-08-07T09:12:20.070Z,1.00
2022-08-07T09:16:23.871Z,1.17
2022-08-07T09:18:16.798Z,0.95
2022-08-07T09:21:13.875Z,1.27
2022-08-07T09:24:56.071Z,0.77
2022-08-07T09:27:31.290Z,0.80
2022-08-07T09:30:09.513Z,0.70
2022-08-07T09:33:41.347Z,1.20
2022-08-07T09:36:19.507Z,1.00
2022-08-07T09:39:27.458Z,0.98
2022-08-07T09:42:12.833Z,0.98
2022-08-07T09:46:29.077Z,0.88
2022-08-07T09:48:55.827Z,1.00
2022-08-07T09:52:10.191Z,1.10
2022-08-07T09:54:49.474Z,1.00
2022-08-07T09:57:27.334Z,1.37
2022-08-07T10:00:05.216Z,0.80
2022-08-07T10:04:06.089Z,1.20
2022-08-07T10:06:27.485Z,1.05
2022-08-07T10:09:15.362Z,1.00
2022-08-07T10:12:19.622Z,1.08
2022-08-07T10:15:15.464Z,0.88
2022-08-07T10:18:21.148Z,1.10
2022-08-07T10:20:54.554Z,1.40
2022-08-07T10:24:06.777Z,1.60
2022-08-07T10:27:30.132Z,1.10
2022-08-07T10:30:18.315Z,1.40
2022-08-07T10:32:53.050Z,1.45
2022-08-07T10:35:56.710Z,1.23
2022-08-07T10:38:46.450Z,1.42
2022-08-07T10:41:46.243Z,1.30
2022-08-07T10:44:47.172Z,1.15
2022-08-07T10:47:54.482Z,1.58
2022-08-07T10:50:25.673Z,1.30
2022-08-07T10:53:22.725Z,0.90
2022-08-07T10:56:20.925Z,1.00
2022-08-07T10:59:21.435Z,1.20
2022-08-07T11:02:11.745Z,1.30
2022-08-07T11:04:59.332Z,1.12
2022-08-07T11:07:59.454Z,1.37
2022-08-07T11:10:31.996Z,1.62
2022-08-07T11:13:16.834Z,1.42
2022-08-07T11:16:08.585Z,1.40
2022-08-07T11:18:54.557Z,1.73
2022-08-07T11:21:44.839Z,1.60
2022-08-07T11:24:21.927Z,1.50
2022-08-07T11:27:04.781Z,1.45
2022-08-07T11:29:40.893Z,1.23
2022-08-07T11:32:25.732Z,1.30
2022-08-07T11:34:57.447Z,1.87
2022-08-07T11:37:57.847Z,1.30
2022-08-07T11:40:41.846Z,1.40
2022-08-07T11:43:41.335Z,1.35
2022-08-07T11:46:48.678Z,1.20
2022-08-07T11:50:30.504Z,1.20
2022-08-07T11:52:52.001Z,1.30
2022-08-07T11:56:09.082Z,1.50
2022-08-07T11:59:01.625Z,1.05
2022-08-07T12:02:00.526Z,1.77
2022-08-07T12:05:15.101Z,1.30
2022-08-07T12:08:03.713Z,1.60
2022-08-07T12:10:48.747Z,1.33
2022-08-07T12:14:01.261Z,1.62
2022-08-07T12:16:36.714Z,1.75
2022-08-07T12:20:05.413Z,1.90
2022-08-07T12:22:56.301Z,1.60
2022-08-07T12:26:03.422Z,1.62
2022-08-07T12:28:45.084Z,1.80
2022-08-07T12:32:02.503Z,1.50
2022-08-07T12:34:29.115Z,1.85
2022-08-07T12:36:57.784Z,1.60
2022-08-07T12:39:42.497Z,1.98
2022-08-07T12:42:15.937Z,1.70
2022-08-07T12:44:47.713Z,1.77
2022-08-07T12:47:26.765Z,1.60
2022-08-07T12:50:39.286Z,1.60
2022-08-07T12:53:19.059Z,2.10
2022-08-07T12:56:09.958Z,1.60
2022-08-07T12:58:42.953Z,1.73
2022-08-07T13:01:42.553Z,1.80
2022-08-07T13:04:13.594Z,1.42
2022-08-07T13:07:01.034Z,1.80
2022-08-07T13:10:28.678Z,1.55
2022-08-07T13:13:08.530Z,1.10
2022-08-07T13:15:59.766Z,1.20
2022-08-07T13:18:50.575Z,1.30
2022-08-07T13:21:51.279Z,1.20
2022-08-07T13:24:30.853Z,1.35
2022-08-07T13:27:13.794Z,1.27
2022-08-07T13:30:06.755Z,1.25
2022-08-07T13:34:11.680Z,1.37
2022-08-07T13:36:09.392Z,1.10
2022-08-07T13:38:58.857Z,1.40
2022-08-07T13:41:48.617Z,1.40
2022-08-07T13:44:26.131Z,1.48
2022-08-07T13:46:59.342Z,1.90
2022-08-07T13:50:32.843Z,1.30
2022-08-07T13:52:33.526Z,1.12
2022-08-07T13:55:19.548Z,1.50
2022-08-07T13:58:31.685Z,1.20
2022-08-07T14:01:09.019Z,1.55
2022-08-07T14:04:05.663Z,1.42
2022-08-07T14:06:34.440Z,1.27
2022-08-07T14:09:05.094Z,1.40
2022-08-07T14:11:53.969Z,1.30
2022-08-07T14:14:58.989Z,1.23
2022-08-07T14:18:13.003Z,1.48
2022-08-07T14:22:40.876Z,1.60
2022-08-07T14:23:58.742Z,1.40
2022-08-07T14:26:28.118Z,1.10
2022-08-07T14:29:02.946Z,1.40
2022-08-07T14:31:42.388Z,1.20
2022-08-07T14:34:29.193Z,1.30
2022-08-07T14:37:01.727Z,1.27
2022-08-07T14:40:16.079Z,1.08
2022-08-07T14:42:31.300Z,1.12
2022-08-07T14:45:22.315Z,1.20
2022-08-07T14:47:53.015Z,1.17
2022-08-07T14:50:28.884Z,1.30
2022-08-07T14:55:56.094Z,1.30
2022-08-07T14:58:31.378Z,1.12
2022-08-07T15:01:21.337Z,1.50
2022-08-07T15:06:40.398Z,1.10
2022-08-07T15:09:58.818Z,2.17
2022-08-07T15:12:26.034Z,1.10
2022-08-07T15:17:59.733Z,1.20
2022-08-07T15:20:55.087Z,1.30
2022-08-07T15:25:13.485Z,1.10
2022-08-07T15:26:22.630Z,1.20
2022-08-07T15:31:57.939Z,1.17
2022-08-07T15:38:04.604Z,1.00
2022-08-07T15:46:31.833Z,1.50
2022-08-07T15:49:13.122Z,0.95
2022-08-07T15:54:33.944Z,1.20
2022-08-07T15:57:10.607Z,1.17
2022-08-07T15:59:59.219Z,0.85
2022-08-07T16:02:31.883Z,1.10
2022-08-07T16:05:15.308Z,1.05
2022-08-07T16:08:31.235Z,1.08
2022-08-07T16:10:38.538Z,0.88
2022-08-07T16:13:58.400Z,1.02
2022-08-07T16:16:49.860Z,0.90
2022-08-07T16:19:58.910Z,1.15
2022-08-07T16:23:12.060Z,1.08
2022-08-07T16:26:02.280Z,1.10
2022-08-07T16:30:07.141Z,0.90
2022-08-07T16:32:33.008Z,1.02
2022-08-07T16:35:58.694Z,1.02
2022-08-07T16:38:11.385Z,0.90
2022-08-07T16:41:17.300Z,0.90
2022-08-07T16:44:03.760Z,1.40
2022-08-07T16:47:12.014Z,1.10
2022-08-07T16:50:20.626Z,1.23
2022-08-07T16:53:14.809Z,0.82
2022-08-07T16:55:50.541Z,1.00
2022-08-07T16:59:14.301Z,0.90
2022-08-07T17:02:09.049Z,0.90
2022-08-07T17:06:19.412Z,0.73
2022-08-07T17:08:08.979Z,0.90
2022-08-07T17:10:55.678Z,0.80
2022-08-07T17:14:19.568Z,1.17
2022-08-07T17:17:01.312Z,1.55
2022-08-07T17:20:02.457Z,0.68
2022-08-07T17:22:45.871Z,0.95
2022-08-07T17:25:19.249Z,0.88
2022-08-07T17:28:09.123Z,0.90
2022-08-07T17:30:57.981Z,1.05
2022-08-07T17:34:09.586Z,0.82
2022-08-07T17:36:26.820Z,0.80
2022-08-07T17:39:10.104Z,0.60
2022-08-07T17:42:02.616Z,1.00
2022-08-07T17:44:55.632Z,0.70
2022-08-07T17:47:42.273Z,0.93
2022-08-07T17:50:30.445Z,0.60
2022-08-07T17:53:59.565Z,1.02
2022-08-07T17:56:06.336Z,0.98
2022-08-07T17:58:50.596Z,0.90
2022-08-07T18:01:39.197Z,1.10
2022-08-07T18:04:35.218Z,1.00
2022-08-07T18:07:21.026Z,0.90
2022-08-07T18:10:32.790Z,0.90
2022-08-07T18:13:00.771Z,1.00
2022-08-07T18:15:37.362Z,0.90
2022-08-07T18:18:47.270Z,1.10
2022-08-07T18:21:28.759Z,0.62
2022-08-07T18:24:33.861Z,0.85
2022-08-07T18:27:17.519Z,0.70
2022-08-07T18:30:32.456Z,0.90
2022-08-07T18:33:36.803Z,0.82
2022-08-07T18:36:32.835Z,0.98
2022-08-07T18:40:07.210Z,0.90
2022-08-07T18:42:28.591Z,1.10
2022-08-07T18:45:44.772Z,1.00
2022-08-07T18:50:05.462Z,0.80
2022-08-07T18:50:59.625Z,0.95
2022-08-07T18:53:46.546Z,1.10
2022-08-07T18:56:58.334Z,1.00
2022-08-07T19:00:32.709Z,0.80
2022-08-07T19:03:37.509Z,0.90
2022-08-07T19:06:16.544Z,0.90
2022-08-07T19:08:58.698Z,0.70
2022-08-07T19:12:04.651Z,0.85
2022-08-07T19:14:55.910Z,0.90
2022-08-07T19:18:01.209Z,1.08
2022-08-07T19:21:09.109Z,1.00
2022-08-07T19:23:59.111Z,0.70
2022-08-07T19:26:29.173Z,1.00
2022-08-07T19:30:58.780Z,1.08
2022-08-07T19:32:07.935Z,0.70
2022-08-07T19:34:41.985Z,0.88
2022-08-07T19:37:19.278Z,0.98
2022-08-07T19:40:02.111Z,0.80
2022-08-07T19:42:39.889Z,0.88
2022-08-07T19:46:04.698Z,1.10
2022-08-07T19:48:18.976Z,1.00
2022-08-07T19:50:54.540Z,0.98
2022-08-07T19:54:34.718Z,0.80
2022-08-07T19:57:56.718Z,0.70
2022-08-07T19:59:12.310Z,0.77
2022-08-07T20:01:55.844Z,0.77
2022-08-07T20:04:31.379Z,0.68
2022-08-07T20:07:00.796Z,0.85
2022-08-07T20:10:37.333Z,1.05
2022-08-07T20:12:35.766Z,0.80
2022-08-07T20:15:15.504Z,0.70
2022-08-07T20:18:01.637Z,0.80
2022-08-07T20:20:33.945Z,0.77
2022-08-07T20:23:23.264Z,0.82
2022-08-07T20:26:04.512Z,0.82
2022-08-07T20:28:41.264Z,0.70
2022-08-07T20:31:21.353Z,0.80
2022-08-07T20:33:56.654Z,0.95
2022-08-07T20:36:29.736Z,0.80
2022-08-07T20:39:00.779Z,0.70
2022-08-07T20:41:37.951Z,0.70
2022-08-07T20:44:12.825Z,0.73
2022-08-07T20:46:45.247Z,0.70
2022-08-07T20:50:00.920Z,0.82
2022-08-07T20:52:16.755Z,0.80
2022-08-07T20:54:54.232Z,0.88
2022-08-07T20:57:29.793Z,0.70
2022-08-07T21:02:58.131Z,0.70
2022-08-07T21:05:52.457Z,0.70
2022-08-07T21:08:37.771Z,0.80
2022-08-07T21:11:18.329Z,0.88
2022-08-07T21:14:16.148Z,0.77
2022-08-07T21:16:55.887Z,0.80
2022-08-07T21:19:32.340Z,0.80
2022-08-07T21:22:16.361Z,0.98
2022-08-07T21:25:12.681Z,0.75
2022-08-07T21:28:02.135Z,1.00
2022-08-07T21:30:49.466Z,0.70
2022-08-07T21:33:21.976Z,0.77
2022-08-07T21:36:11.916Z,0.77
2022-08-07T21:39:45.398Z,2.17
2022-08-07T21:42:42.651Z,1.20
2022-08-07T21:46:09.456Z,0.90
2022-08-07T21:48:57.755Z,0.90
2022-08-07T21:51:28.141Z,0.98
2022-08-07T21:54:06.446Z,0.70
2022-08-07T21:56:50.609Z,0.73
2022-08-07T22:00:04.162Z,0.80
2022-08-07T22:03:05.786Z,0.77
2022-08-07T22:05:50.136Z,0.90
2022-08-07T22:08:24.666Z,0.80
2022-08-07T22:10:59.629Z,0.80
2022-08-07T22:13:51.318Z,0.80
2022-08-07T22:16:43.303Z,0.88
2022-08-07T22:19:38.482Z,0.57
2022-08-07T22:22:28.558Z,0.90
2022-08-07T22:25:08.358Z,0.80
2022-08-07T22:28:20.049Z,0.70
2022-08-07T22:30:32.040Z,0.80
2022-08-07T22:33:09.338Z,1.02
2022-08-07T22:35:48.670Z,0.90
2022-08-07T22:38:25.984Z,0.83
2022-08-07T22:41:03.485Z,0.80
2022-08-07T22:43:51.898Z,0.70
2022-08-07T22:46:46.823Z,0.80
2022-08-07T22:49:54.322Z,0.70
2022-08-07T22:52:51.884Z,0.90
2022-08-07T22:55:30.967Z,0.80
2022-08-07T22:58:17.275Z,0.80
2022-08-07T23:01:09.398Z,0.95
2022-08-07T23:03:59.050Z,0.73
2022-08-07T23:10:04.609Z,0.70
2022-08-07T23:12:53.453Z,0.75
2022-08-07T23:16:05.459Z,0.70
2022-08-07T23:18:19.305Z,0.80
2022-08-07T23:21:20.956Z,0.80
2022-08-07T23:24:05.291Z,0.80
2022-08-07T23:27:12.080Z,0.77
2022-08-07T23:30:37.137Z,0.70
2022-08-07T23:34:33.967Z,0.80
2022-08-07T23:36:54.664Z,0.90
2022-08-07T23:39:55.610Z,0.70
2022-08-07T23:42:34.256Z,0.70
2022-08-07T23:45:15.514Z,0.70
2022-08-07T23:48:19.889Z,0.70
2022-08-07T23:51:12.418Z,0.80
2022-08-07T23:54:35.824Z,0.77
2022-08-07T23:57:18.482Z,0.90
